Terminal Aerodrome Forecast
Issued by NWS Duluth, MN

Home | Current Version | Previous Version | Text Only | Print | Product List | Glossary On
Versions: 1 2 3 4 5 6 7 8 9 10 11 12 13 14 15 16 17 18 19 20 21 22 23 24 25 26 27 28 29 30 31 32 33 34
000
FTUS43 KDLH 232100 AAA
TAFDLH
TAF AMD
KDLH 232102Z 2321/2418 31013G24KT P6SM BKN021
      TEMPO 2403/2405 BKN010
     FM240900 31007KT P6SM -SN OVC012
     FM241400 31007KT 5SM BR OVC012=

USA.gov is the U.S. government's official web portal to all federal, state and local government web resources and services.